sensor_id;sensor_type;location;lat;lon;timestamp;pressure;altitude;pressure_sealevel;temperature;humidity
74370;BME280;71062;44.520;11.342;2024-01-30T00:01:55;103267.47;;;-0.16;100.00
74370;BME280;71062;44.520;11.342;2024-01-30T00:04:21;103264.28;;;-0.11;100.00
74370;BME280;71062;44.520;11.342;2024-01-30T00:06:47;103260.66;;;-0.21;100.00
74370;BME280;71062;44.520;11.342;2024-01-30T08:39:23;103294.75;;;0.97;100.00
74370;BME280;71062;44.520;11.342;2024-01-30T08:41:49;103270.34;;;0.83;100.00
74370;BME280;71062;44.520;11.342;2024-01-30T08:44:16;103300.53;;;1.04;100.00
74370;BME280;71062;44.520;11.342;2024-01-30T08:46:43;103303.22;;;1.13;100.00
74370;BME280;71062;44.520;11.342;2024-01-30T08:49:11;103302.03;;;1.34;100.00
74370;BME280;71062;44.520;11.342;2024-01-30T08:51:39;103306.06;;;1.39;100.00
74370;BME280;71062;44.520;11.342;2024-01-30T08:54:07;103294.22;;;1.47;100.00
74370;BME280;71062;44.520;11.342;2024-01-30T08:56:33;103303.09;;;1.76;100.00
74370;BME280;71062;44.520;11.342;2024-01-30T08:58:58;103301.19;;;1.94;100.00
74370;BME280;71062;44.520;11.342;2024-01-30T09:01:27;103298.25;;;1.95;100.00
74370;BME280;71062;44.520;11.342;2024-01-30T09:03:53;103305.09;;;2.09;100.00
74370;BME280;71062;44.520;11.342;2024-01-30T09:06:18;103310.00;;;2.15;100.00
74370;BME280;71062;44.520;11.342;2024-01-30T09:08:44;103304.63;;;2.47;100.00
74370;BME280;71062;44.520;11.342;2024-01-30T09:11:11;103308.53;;;2.62;100.00
74370;BME280;71062;44.520;11.342;2024-01-30T09:13:36;103305.25;;;2.75;100.00
74370;BME280;71062;44.520;11.342;2024-01-30T09:16:02;103298.59;;;3.01;100.00
74370;BME280;71062;44.520;11.342;2024-01-30T09:18:28;103306.97;;;3.17;100.00
74370;BME280;71062;44.520;11.342;2024-01-30T09:20:54;103299.50;;;3.18;100.00
74370;BME280;71062;44.520;11.342;2024-01-30T09:23:19;103299.69;;;3.24;100.00
74370;BME280;71062;44.520;11.342;2024-01-30T09:25:45;103297.28;;;3.46;100.00
74370;BME280;71062;44.520;11.342;2024-01-30T09:28:10;103304.44;;;3.56;100.00
74370;BME280;71062;44.520;11.342;2024-01-30T09:30:36;103284.78;;;3.66;100.00
74370;BME280;71062;44.520;11.342;2024-01-30T09:33:04;103293.31;;;3.88;100.00
74370;BME280;71062;44.520;11.342;2024-01-30T09:35:30;103302.50;;;4.05;100.00
74370;BME280;71062;44.520;11.342;2024-01-30T09:37:56;103299.00;;;4.19;100.00
74370;BME280;71062;44.520;11.342;2024-01-30T09:40:23;103298.94;;;4.43;100.00
74370;BME280;71062;44.520;11.342;2024-01-30T09:42:50;103306.19;;;4.60;100.00
74370;BME280;71062;44.520;11.342;2024-01-30T09:45:19;103300.78;;;4.67;100.00
74370;BME280;71062;44.520;11.342;2024-01-30T09:47:45;103309.16;;;4.97;99.58
74370;BME280;71062;44.520;11.342;2024-01-30T09:50:13;103300.91;;;5.12;96.93
74370;BME280;71062;44.520;11.342;2024-01-30T09:52:39;103304.25;;;5.07;95.85
74370;BME280;71062;44.520;11.342;2024-01-30T09:55:05;103294.72;;;5.24;96.69
74370;BME280;71062;44.520;11.342;2024-01-30T09:57:31;103296.81;;;5.22;96.87
74370;BME280;71062;44.520;11.342;2024-01-30T09:59:57;103300.63;;;5.29;98.08
74370;BME280;71062;44.520;11.342;2024-01-30T10:02:23;103301.53;;;5.44;97.69
74370;BME280;71062;44.520;11.342;2024-01-30T10:04:50;103292.16;;;5.45;95.70
74370;BME280;71062;44.520;11.342;2024-01-30T10:07:16;103287.06;;;5.49;96.82
74370;BME280;71062;44.520;11.342;2024-01-30T10:09:42;103289.97;;;5.55;97.26
74370;BME280;71062;44.520;11.342;2024-01-30T10:12:08;103296.97;;;5.51;97.43
74370;BME280;71062;44.520;11.342;2024-01-30T10:14:40;103282.72;;;5.46;98.23
74370;BME280;71062;44.520;11.342;2024-01-30T10:17:09;103286.19;;;5.71;97.39
74370;BME280;71062;44.520;11.342;2024-01-30T10:19:39;103283.56;;;5.69;96.84
74370;BME280;71062;44.520;11.342;2024-01-30T10:22:05;103278.97;;;5.77;96.48
74370;BME280;71062;44.520;11.342;2024-01-30T10:24:32;103279.13;;;5.83;96.31
74370;BME280;71062;44.520;11.342;2024-01-30T10:26:58;103268.19;;;5.74;96.62
74370;BME280;71062;44.520;11.342;2024-01-30T10:29:24;103277.81;;;5.94;96.63
74370;BME280;71062;44.520;11.342;2024-01-30T10:32:03;103280.28;;;6.26;96.30
74370;BME280;71062;44.520;11.342;2024-01-30T10:34:30;103275.28;;;6.36;94.79
74370;BME280;71062;44.520;11.342;2024-01-30T10:39:31;103270.19;;;6.54;92.40
74370;BME280;71062;44.520;11.342;2024-01-30T10:42:04;103274.50;;;6.42;91.27
74370;BME280;71062;44.520;11.342;2024-01-30T10:44:43;103273.06;;;6.60;89.48
74370;BME280;71062;44.520;11.342;2024-01-30T10:47:12;103260.44;;;6.50;89.72
74370;BME280;71062;44.520;11.342;2024-01-30T10:49:41;103260.44;;;6.50;89.28
74370;BME280;71062;44.520;11.342;2024-01-30T10:52:09;103251.69;;;6.38;88.49
74370;BME280;71062;44.520;11.342;2024-01-30T10:54:35;103252.91;;;6.65;87.62
74370;BME280;71062;44.520;11.342;2024-01-30T10:57:02;103245.19;;;6.67;87.21
74370;BME280;71062;44.520;11.342;2024-01-30T10:59:30;103242.00;;;6.85;87.26
74370;BME280;71062;44.520;11.342;2024-01-30T11:01:58;103242.66;;;7.01;85.95
74370;BME280;71062;44.520;11.342;2024-01-30T11:04:24;103230.28;;;7.10;86.08
74370;BME280;71062;44.520;11.342;2024-01-30T11:06:52;103232.69;;;7.34;83.91
74370;BME280;71062;44.520;11.342;2024-01-30T11:09:19;103228.75;;;6.93;84.76
74370;BME280;71062;44.520;11.342;2024-01-30T11:11:52;103227.44;;;6.89;85.94
74370;BME280;71062;44.520;11.342;2024-01-30T11:14:25;103222.91;;;6.88;85.53
74370;BME280;71062;44.520;11.342;2024-01-30T11:16:52;103220.53;;;6.70;86.22
74370;BME280;71062;44.520;11.342;2024-01-30T11:19:30;103218.13;;;6.67;85.74
74370;BME280;71062;44.520;11.342;2024-01-30T11:21:56;103221.22;;;7.08;85.18
74370;BME280;71062;44.520;11.342;2024-01-30T11:24:25;103211.66;;;7.17;84.00
74370;BME280;71062;44.520;11.342;2024-01-30T11:26:58;103216.56;;;7.15;82.51
74370;BME280;71062;44.520;11.342;2024-01-30T11:29:25;103205.25;;;7.23;83.04
74370;BME280;71062;44.520;11.342;2024-01-30T11:31:57;103196.78;;;7.38;83.66
74370;BME280;71062;44.520;11.342;2024-01-30T11:34:23;103198.00;;;7.29;83.95
74370;BME280;71062;44.520;11.342;2024-01-30T11:36:55;103200.84;;;7.35;83.57
74370;BME280;71062;44.520;11.342;2024-01-30T11:39:25;103191.00;;;7.39;83.87
74370;BME280;71062;44.520;11.342;2024-01-30T11:41:51;103187.22;;;7.74;82.26
74370;BME280;71062;44.520;11.342;2024-01-30T11:44:21;103193.09;;;8.41;80.42
74370;BME280;71062;44.520;11.342;2024-01-30T11:46:48;103188.28;;;9.49;77.17
74370;BME280;71062;44.520;11.342;2024-01-30T11:49:14;103183.94;;;9.47;74.98
74370;BME280;71062;44.520;11.342;2024-01-30T11:51:40;103183.09;;;9.98;71.88
74370;BME280;71062;44.520;11.342;2024-01-30T11:54:07;103189.16;;;9.82;71.58
74370;BME280;71062;44.520;11.342;2024-01-30T11:56:33;103183.94;;;10.05;70.97
74370;BME280;71062;44.520;11.342;2024-01-30T11:58:59;103177.53;;;10.69;69.45
74370;BME280;71062;44.520;11.342;2024-01-30T12:01:26;103172.47;;;10.84;68.15
74370;BME280;71062;44.520;11.342;2024-01-30T12:03:52;103173.56;;;10.83;67.82
74370;BME280;71062;44.520;11.342;2024-01-30T12:06:18;103165.53;;;11.24;66.75
74370;BME280;71062;44.520;11.342;2024-01-30T12:08:59;103159.41;;;11.58;65.13
74370;BME280;71062;44.520;11.342;2024-01-30T12:11:25;103152.47;;;11.61;65.42
74370;BME280;71062;44.520;11.342;2024-01-30T12:13:52;103152.00;;;11.39;65.25
74370;BME280;71062;44.520;11.342;2024-01-30T12:16:18;103154.78;;;11.95;64.03
74370;BME280;71062;44.520;11.342;2024-01-30T12:18:44;103155.06;;;12.11;63.11
74370;BME280;71062;44.520;11.342;2024-01-30T12:21:10;103152.09;;;12.06;63.20
74370;BME280;71062;44.520;11.342;2024-01-30T12:23:36;103141.91;;;11.56;65.00
74370;BME280;71062;44.520;11.342;2024-01-30T12:26:04;103139.91;;;11.63;64.34
74370;BME280;71062;44.520;11.342;2024-01-30T12:28:33;103141.28;;;11.54;64.78
74370;BME280;71062;44.520;11.342;2024-01-30T12:31:05;103138.53;;;11.72;64.09
74370;BME280;71062;44.520;11.342;2024-01-30T12:33:31;103128.34;;;11.47;64.65
74370;BME280;71062;44.520;11.342;2024-01-30T12:35:57;103132.28;;;11.70;64.07
74370;BME280;71062;44.520;11.342;2024-01-30T12:38:26;103136.44;;;12.10;63.30
74370;BME280;71062;44.520;11.342;2024-01-30T12:40:55;103133.16;;;12.13;62.15
74370;BME280;71062;44.520;11.342;2024-01-30T12:43:22;103122.63;;;11.53;62.79
74370;BME280;71062;44.520;11.342;2024-01-30T12:45:49;103126.28;;;12.27;61.45
74370;BME280;71062;44.520;11.342;2024-01-30T12:48:15;103120.47;;;12.59;60.54
74370;BME280;71062;44.520;11.342;2024-01-30T12:50:41;103113.53;;;12.73;59.15
74370;BME280;71062;44.520;11.342;2024-01-30T12:53:07;103120.25;;;12.90;59.23
74370;BME280;71062;44.520;11.342;2024-01-30T12:55:34;103117.94;;;12.69;60.16
74370;BME280;71062;44.520;11.342;2024-01-30T12:58:00;103112.91;;;12.71;61.11
74370;BME280;71062;44.520;11.342;2024-01-30T13:00:26;103114.97;;;12.46;61.89
74370;BME280;71062;44.520;11.342;2024-01-30T13:02:52;103109.72;;;12.97;61.56
74370;BME280;71062;44.520;11.342;2024-01-30T13:05:19;103117.63;;;13.48;59.47
74370;BME280;71062;44.520;11.342;2024-01-30T13:07:45;103106.00;;;12.85;60.89
74370;BME280;71062;44.520;11.342;2024-01-30T13:10:10;103104.44;;;12.71;61.87
74370;BME280;71062;44.520;11.342;2024-01-30T13:12:37;103107.53;;;12.99;61.30
74370;BME280;71062;44.520;11.342;2024-01-30T13:15:05;103109.44;;;12.87;60.97
74370;BME280;71062;44.520;11.342;2024-01-30T13:17:31;103097.25;;;12.57;61.25
74370;BME280;71062;44.520;11.342;2024-01-30T13:19:57;103093.22;;;12.82;60.73
74370;BME280;71062;44.520;11.342;2024-01-30T13:22:23;103106.22;;;13.54;59.33
74370;BME280;71062;44.520;11.342;2024-01-30T13:24:50;103092.00;;;12.90;60.92
74370;BME280;71062;44.520;11.342;2024-01-30T13:27:16;103091.00;;;13.02;59.97
74370;BME280;71062;44.520;11.342;2024-01-30T13:29:42;103089.44;;;13.18;59.66
74370;BME280;71062;44.520;11.342;2024-01-30T13:32:08;103084.53;;;12.84;59.22
74370;BME280;71062;44.520;11.342;2024-01-30T13:34:34;103098.59;;;13.43;58.68
74370;BME280;71062;44.520;11.342;2024-01-30T13:36:59;103085.00;;;13.75;57.94
74370;BME280;71062;44.520;11.342;2024-01-30T13:39:25;103081.53;;;13.61;58.43
74370;BME280;71062;44.520;11.342;2024-01-30T13:41:51;103086.13;;;13.85;58.00
74370;BME280;71062;44.520;11.342;2024-01-30T13:44:17;103082.09;;;13.17;59.15
74370;BME280;71062;44.520;11.342;2024-01-30T13:46:43;103078.16;;;13.18;59.74
74370;BME280;71062;44.520;11.342;2024-01-30T13:49:09;103075.00;;;13.49;58.05
74370;BME280;71062;44.520;11.342;2024-01-30T13:51:35;103083.63;;;13.77;57.90
74370;BME280;71062;44.520;11.342;2024-01-30T13:54:00;103072.13;;;13.14;59.40
74370;BME280;71062;44.520;11.342;2024-01-30T13:56:27;103076.38;;;12.28;62.98
74370;BME280;71062;44.520;11.342;2024-01-30T13:58:54;103059.66;;;11.23;66.37
74370;BME280;71062;44.520;11.342;2024-01-30T14:01:22;103060.13;;;10.58;70.59
74370;BME280;71062;44.520;11.342;2024-01-30T14:03:47;103068.69;;;10.32;72.88
74370;BME280;71062;44.520;11.342;2024-01-30T14:06:13;103062.25;;;10.11;74.23
74370;BME280;71062;44.520;11.342;2024-01-30T14:08:39;103064.56;;;10.28;73.22
74370;BME280;71062;44.520;11.342;2024-01-30T14:11:05;103055.97;;;10.23;72.82
74370;BME280;71062;44.520;11.342;2024-01-30T14:13:31;103063.34;;;10.10;72.63
74370;BME280;71062;44.520;11.342;2024-01-30T14:15:58;103068.72;;;10.25;72.40
74370;BME280;71062;44.520;11.342;2024-01-30T14:18:24;103056.69;;;10.49;71.89
74370;BME280;71062;44.520;11.342;2024-01-30T14:20:51;103047.41;;;10.80;70.48
74370;BME280;71062;44.520;11.342;2024-01-30T14:23:18;103058.38;;;10.57;72.48
74370;BME280;71062;44.520;11.342;2024-01-30T14:26:39;103051.59;;;10.33;72.79
74370;BME280;71062;44.520;11.342;2024-01-30T14:29:05;103050.78;;;10.06;74.61
74370;BME280;71062;44.520;11.342;2024-01-30T14:31:30;103046.94;;;9.94;75.17
74370;BME280;71062;44.520;11.342;2024-01-30T14:33:56;103053.44;;;9.88;75.79
74370;BME280;71062;44.520;11.342;2024-01-30T14:36:22;103044.00;;;9.63;77.18
74370;BME280;71062;44.520;11.342;2024-01-30T14:38:47;103046.22;;;9.29;78.58
74370;BME280;71062;44.520;11.342;2024-01-30T14:41:13;103054.41;;;9.30;79.00
74370;BME280;71062;44.520;11.342;2024-01-30T14:43:40;103045.78;;;9.12;79.89
74370;BME280;71062;44.520;11.342;2024-01-30T14:46:06;103044.66;;;8.87;80.92
74370;BME280;71062;44.520;11.342;2024-01-30T14:48:32;103032.13;;;8.70;81.94
74370;BME280;71062;44.520;11.342;2024-01-30T14:50:58;103056.97;;;8.73;83.08
74370;BME280;71062;44.520;11.342;2024-01-30T14:53:24;103050.91;;;8.76;82.81
74370;BME280;71062;44.520;11.342;2024-01-30T14:55:50;103054.78;;;8.75;82.73
74370;BME280;71062;44.520;11.342;2024-01-30T14:58:16;103041.81;;;8.61;83.47
74370;BME280;71062;44.520;11.342;2024-01-30T15:00:41;103048.28;;;8.68;82.82
74370;BME280;71062;44.520;11.342;2024-01-30T15:03:08;103048.50;;;8.60;82.78
74370;BME280;71062;44.520;11.342;2024-01-30T15:05:35;103040.03;;;8.47;83.12
74370;BME280;71062;44.520;11.342;2024-01-30T15:08:01;103049.31;;;8.47;83.46
74370;BME280;71062;44.520;11.342;2024-01-30T15:10:27;103034.00;;;8.37;83.54
74370;BME280;71062;44.520;11.342;2024-01-30T15:12:53;103003.78;;;8.26;82.66
74370;BME280;71062;44.520;11.342;2024-01-30T15:15:18;103037.91;;;8.49;82.70
74370;BME280;71062;44.520;11.342;2024-01-30T15:17:44;103049.31;;;8.47;83.88
74370;BME280;71062;44.520;11.342;2024-01-30T15:20:10;103039.16;;;8.40;84.61
74370;BME280;71062;44.520;11.342;2024-01-30T15:22:36;103037.91;;;8.42;84.30
74370;BME280;71062;44.520;11.342;2024-01-30T15:25:02;103030.97;;;8.32;84.78
74370;BME280;71062;44.520;11.342;2024-01-30T15:27:29;103035.41;;;8.20;85.41
74370;BME280;71062;44.520;11.342;2024-01-30T15:29:54;103033.03;;;8.17;86.52
74370;BME280;71062;44.520;11.342;2024-01-30T15:32:20;103023.75;;;8.10;87.02
74370;BME280;71062;44.520;11.342;2024-01-30T15:34:46;103043.34;;;8.10;89.02
74370;BME280;71062;44.520;11.342;2024-01-30T15:37:12;103034.44;;;8.00;90.18
74370;BME280;71062;44.520;11.342;2024-01-30T15:39:38;103047.59;;;7.99;91.27
74370;BME280;71062;44.520;11.342;2024-01-30T15:42:04;103002.22;;;7.69;91.49
74370;BME280;71062;44.520;11.342;2024-01-30T15:44:30;103053.81;;;7.94;92.32
74370;BME280;71062;44.520;11.342;2024-01-30T15:46:57;103043.22;;;7.83;93.42
74370;BME280;71062;44.520;11.342;2024-01-30T15:49:23;103028.94;;;7.72;93.38
74370;BME280;71062;44.520;11.342;2024-01-30T15:51:50;103023.97;;;7.67;93.54
74370;BME280;71062;44.520;11.342;2024-01-30T15:54:16;103060.66;;;7.85;93.81
74370;BME280;71062;44.520;11.342;2024-01-30T15:56:43;103034.06;;;7.68;94.42
74370;BME280;71062;44.520;11.342;2024-01-30T15:59:08;103018.47;;;7.53;95.07
74370;BME280;71062;44.520;11.342;2024-01-30T16:01:35;103031.88;;;7.57;95.94
74370;BME280;71062;44.520;11.342;2024-01-30T16:04:00;103045.44;;;7.60;96.52
74370;BME280;71062;44.520;11.342;2024-01-30T16:06:26;103041.31;;;7.56;96.94
74370;BME280;71062;44.520;11.342;2024-01-30T16:08:52;103044.97;;;7.50;97.62
74370;BME280;71062;44.520;11.342;2024-01-30T16:11:18;103056.75;;;7.46;98.34
74370;BME280;71062;44.520;11.342;2024-01-30T16:13:43;103057.13;;;7.36;99.57
74370;BME280;71062;44.520;11.342;2024-01-30T16:16:09;103066.22;;;7.45;99.65
74370;BME280;71062;44.520;11.342;2024-01-30T16:18:35;103063.00;;;7.20;100.00
74370;BME280;71062;44.520;11.342;2024-01-30T16:21:01;103061.66;;;7.16;100.00
74370;BME280;71062;44.520;11.342;2024-01-30T16:23:27;103053.03;;;7.11;100.00
74370;BME280;71062;44.520;11.342;2024-01-30T16:25:54;103063.81;;;7.14;100.00
74370;BME280;71062;44.520;11.342;2024-01-30T16:28:24;103049.84;;;6.93;100.00
74370;BME280;71062;44.520;11.342;2024-01-30T16:30:50;103062.63;;;6.81;100.00
74370;BME280;71062;44.520;11.342;2024-01-30T16:33:15;103054.13;;;6.89;100.00
74370;BME280;71062;44.520;11.342;2024-01-30T16:35:43;103063.97;;;6.85;100.00
74370;BME280;71062;44.520;11.342;2024-01-30T16:38:09;103064.63;;;6.66;100.00
74370;BME280;71062;44.520;11.342;2024-01-30T16:40:34;103030.03;;;6.46;100.00
74370;BME280;71062;44.520;11.342;2024-01-30T16:43:00;103061.94;;;6.58;100.00
74370;BME280;71062;44.520;11.342;2024-01-30T16:45:26;103066.75;;;6.43;100.00
74370;BME280;71062;44.520;11.342;2024-01-30T16:47:51;103065.25;;;6.26;100.00
74370;BME280;71062;44.520;11.342;2024-01-30T16:50:17;103082.28;;;6.31;100.00
74370;BME280;71062;44.520;11.342;2024-01-30T16:52:43;103078.31;;;6.40;100.00
74370;BME280;71062;44.520;11.342;2024-01-30T16:55:09;103079.69;;;6.29;100.00
74370;BME280;71062;44.520;11.342;2024-01-30T16:57:35;103081.47;;;6.16;100.00
74370;BME280;71062;44.520;11.342;2024-01-30T17:00:01;103078.25;;;6.19;100.00
74370;BME280;71062;44.520;11.342;2024-01-30T17:02:27;103092.72;;;6.08;100.00
74370;BME280;71062;44.520;11.342;2024-01-30T17:04:52;103099.25;;;6.00;100.00
74370;BME280;71062;44.520;11.342;2024-01-30T17:07:18;103105.63;;;6.09;100.00
74370;BME280;71062;44.520;11.342;2024-01-30T17:09:44;103094.16;;;6.04;100.00
74370;BME280;71062;44.520;11.342;2024-01-30T17:12:10;103092.22;;;5.90;100.00
74370;BME280;71062;44.520;11.342;2024-01-30T17:14:38;103111.41;;;5.93;100.00
74370;BME280;71062;44.520;11.342;2024-01-30T17:17:06;103105.16;;;5.91;100.00
74370;BME280;71062;44.520;11.342;2024-01-30T17:19:32;103111.16;;;5.80;100.00
74370;BME280;71062;44.520;11.342;2024-01-30T17:21:58;103108.09;;;5.75;100.00
74370;BME280;71062;44.520;11.342;2024-01-30T17:24:24;103099.03;;;5.72;100.00
74370;BME280;71062;44.520;11.342;2024-01-30T17:26:50;103112.44;;;5.77;100.00
74370;BME280;71062;44.520;11.342;2024-01-30T17:29:17;103095.97;;;5.67;100.00
74370;BME280;71062;44.520;11.342;2024-01-30T17:31:43;103108.34;;;5.88;100.00
74370;BME280;71062;44.520;11.342;2024-01-30T17:34:12;103116.19;;;5.99;100.00
74370;BME280;71062;44.520;11.342;2024-01-30T17:36:38;103103.66;;;5.80;100.00
74370;BME280;71062;44.520;11.342;2024-01-30T17:39:04;103101.84;;;5.72;100.00
74370;BME280;71062;44.520;11.342;2024-01-30T17:41:32;103111.94;;;5.74;100.00
74370;BME280;71062;44.520;11.342;2024-01-30T17:43:58;103109.41;;;5.49;100.00
74370;BME280;71062;44.520;11.342;2024-01-30T17:46:23;103115.38;;;5.46;100.00
74370;BME280;71062;44.520;11.342;2024-01-30T17:48:49;103108.66;;;5.55;100.00
74370;BME280;71062;44.520;11.342;2024-01-30T17:51:15;103114.78;;;5.36;100.00
74370;BME280;71062;44.520;11.342;2024-01-30T17:53:41;103112.66;;;5.38;100.00
74370;BME280;71062;44.520;11.342;2024-01-30T17:56:07;103118.59;;;5.35;100.00
74370;BME280;71062;44.520;11.342;2024-01-30T17:58:39;103108.81;;;5.39;100.00
74370;BME280;71062;44.520;11.342;2024-01-30T18:01:07;103106.31;;;5.44;100.00
74370;BME280;71062;44.520;11.342;2024-01-30T18:03:32;103114.09;;;5.34;100.00
74370;BME280;71062;44.520;11.342;2024-01-30T18:05:58;103109.75;;;5.32;100.00
74370;BME280;71062;44.520;11.342;2024-01-30T18:08:25;103110.31;;;5.27;100.00
74370;BME280;71062;44.520;11.342;2024-01-30T18:10:52;103110.13;;;5.14;100.00
74370;BME280;71062;44.520;11.342;2024-01-30T18:13:17;103117.94;;;5.33;100.00
74370;BME280;71062;44.520;11.342;2024-01-30T18:15:43;103120.00;;;5.17;100.00
74370;BME280;71062;44.520;11.342;2024-01-30T18:18:10;103126.22;;;5.04;100.00
74370;BME280;71062;44.520;11.342;2024-01-30T18:20:39;103126.97;;;4.98;100.00
74370;BME280;71062;44.520;11.342;2024-01-30T18:23:07;103119.34;;;4.92;100.00
74370;BME280;71062;44.520;11.342;2024-01-30T18:25:33;103111.06;;;4.84;100.00
74370;BME280;71062;44.520;11.342;2024-01-30T18:27:59;103120.03;;;4.94;100.00
74370;BME280;71062;44.520;11.342;2024-01-30T18:30:26;103124.13;;;4.84;100.00
74370;BME280;71062;44.520;11.342;2024-01-30T18:32:52;103124.00;;;5.00;100.00
74370;BME280;71062;44.520;11.342;2024-01-30T18:35:18;103126.72;;;4.85;100.00
74370;BME280;71062;44.520;11.342;2024-01-30T18:37:44;103130.28;;;4.71;100.00
74370;BME280;71062;44.520;11.342;2024-01-30T18:40:11;103131.69;;;4.67;100.00
74370;BME280;71062;44.520;11.342;2024-01-30T18:42:37;103133.53;;;4.60;100.00
74370;BME280;71062;44.520;11.342;2024-01-30T18:45:02;103137.84;;;4.63;100.00
74370;BME280;71062;44.520;11.342;2024-01-30T18:47:29;103134.34;;;4.69;100.00
74370;BME280;71062;44.520;11.342;2024-01-30T18:49:55;103130.28;;;4.71;100.00
74370;BME280;71062;44.520;11.342;2024-01-30T18:52:20;103129.78;;;4.68;100.00
74370;BME280;71062;44.520;11.342;2024-01-30T18:54:47;103133.53;;;4.60;100.00
74370;BME280;71062;44.520;11.342;2024-01-30T18:57:12;103134.63;;;4.51;100.00
74370;BME280;71062;44.520;11.342;2024-01-30T18:59:38;103134.75;;;4.57;100.00
74370;BME280;71062;44.520;11.342;2024-01-30T19:02:04;103134.84;;;4.41;100.00
74370;BME280;71062;44.520;11.342;2024-01-30T19:04:29;103138.25;;;4.51;100.00
74370;BME280;71062;44.520;11.342;2024-01-30T19:06:55;103129.06;;;4.43;100.00
74370;BME280;71062;44.520;11.342;2024-01-30T19:09:21;103124.94;;;4.39;100.00
74370;BME280;71062;44.520;11.342;2024-01-30T19:11:48;103134.97;;;4.48;100.00
74370;BME280;71062;44.520;11.342;2024-01-30T19:14:14;103132.88;;;4.50;100.00
74370;BME280;71062;44.520;11.342;2024-01-30T19:16:40;103132.09;;;4.33;100.00
74370;BME280;71062;44.520;11.342;2024-01-30T19:19:06;103134.69;;;4.35;100.00
74370;BME280;71062;44.520;11.342;2024-01-30T19:21:34;103136.84;;;4.25;100.00
74370;BME280;71062;44.520;11.342;2024-01-30T19:24:03;103139.13;;;4.21;100.00
74370;BME280;71062;44.520;11.342;2024-01-30T19:26:30;103135.16;;;4.16;100.00
74370;BME280;71062;44.520;11.342;2024-01-30T19:28:55;103130.28;;;4.10;100.00
74370;BME280;71062;44.520;11.342;2024-01-30T19:31:22;103132.88;;;4.11;100.00
74370;BME280;71062;44.520;11.342;2024-01-30T19:33:48;103124.44;;;3.97;100.00
74370;BME280;71062;44.520;11.342;2024-01-30T19:36:14;103123.63;;;3.80;100.00
74370;BME280;71062;44.520;11.342;2024-01-30T19:38:40;103138.03;;;3.92;100.00
74370;BME280;71062;44.520;11.342;2024-01-30T19:41:10;103137.28;;;3.98;100.00
74370;BME280;71062;44.520;11.342;2024-01-30T19:43:37;103141.78;;;4.07;100.00
74370;BME280;71062;44.520;11.342;2024-01-30T19:46:02;103129.66;;;4.00;100.00
74370;BME280;71062;44.520;11.342;2024-01-30T19:48:28;103150.09;;;4.15;100.00
74370;BME280;71062;44.520;11.342;2024-01-30T19:50:54;103125.38;;;4.20;100.00
74370;BME280;71062;44.520;11.342;2024-01-30T19:53:20;103125.53;;;4.26;100.00
74370;BME280;71062;44.520;11.342;2024-01-30T19:55:46;103144.84;;;4.20;100.00
74370;BME280;71062;44.520;11.342;2024-01-30T19:58:12;103144.19;;;4.10;100.00
74370;BME280;71062;44.520;11.342;2024-01-30T20:00:39;103142.16;;;4.04;100.00
74370;BME280;71062;44.520;11.342;2024-01-30T20:03:05;103142.16;;;4.04;100.00
74370;BME280;71062;44.520;11.342;2024-01-30T20:05:30;103142.91;;;3.90;100.00
74370;BME280;71062;44.520;11.342;2024-01-30T20:07:56;103133.31;;;3.92;100.00
74370;BME280;71062;44.520;11.342;2024-01-30T20:10:21;103150.69;;;3.94;100.00
74370;BME280;71062;44.520;11.342;2024-01-30T20:12:47;103133.16;;;3.86;100.00
74370;BME280;71062;44.520;11.342;2024-01-30T20:15:13;103143.97;;;3.81;100.00
74370;BME280;71062;44.520;11.342;2024-01-30T20:17:40;103143.31;;;3.63;100.00
74370;BME280;71062;44.520;11.342;2024-01-30T20:20:10;103147.66;;;3.65;100.00
74370;BME280;71062;44.520;11.342;2024-01-30T20:22:36;103146.41;;;3.68;100.00
74370;BME280;71062;44.520;11.342;2024-01-30T20:25:03;103131.69;;;3.51;100.00
74370;BME280;71062;44.520;11.342;2024-01-30T20:27:29;103146.28;;;3.61;100.00
74370;BME280;71062;44.520;11.342;2024-01-30T20:29:54;103143.00;;;3.50;100.00
74370;BME280;71062;44.520;11.342;2024-01-30T20:32:20;103143.00;;;3.50;100.00
74370;BME280;71062;44.520;11.342;2024-01-30T20:34:46;103140.56;;;3.55;100.00
74370;BME280;71062;44.520;11.342;2024-01-30T20:37:12;103136.75;;;3.48;100.00
74370;BME280;71062;44.520;11.342;2024-01-30T20:39:38;103141.09;;;3.42;100.00
74370;BME280;71062;44.520;11.342;2024-01-30T20:42:06;103137.09;;;3.53;100.00
74370;BME280;71062;44.520;11.342;2024-01-30T20:44:33;103133.59;;;3.51;100.00
74370;BME280;71062;44.520;11.342;2024-01-30T20:46:59;103138.84;;;3.46;100.00
74370;BME280;71062;44.520;11.342;2024-01-30T20:49:24;103136.22;;;3.36;100.00
74370;BME280;71062;44.520;11.342;2024-01-30T20:51:50;103145.47;;;3.28;100.00
74370;BME280;71062;44.520;11.342;2024-01-30T20:54:16;103139.19;;;3.18;100.00
74370;BME280;71062;44.520;11.342;2024-01-30T20:56:41;103130.88;;;3.10;100.00
74370;BME280;71062;44.520;11.342;2024-01-30T20:59:08;103136.75;;;3.15;100.00
74370;BME280;71062;44.520;11.342;2024-01-30T21:01:33;103140.59;;;3.30;100.00
74370;BME280;71062;44.520;11.342;2024-01-30T21:03:59;103130.34;;;3.23;100.00
74370;BME280;71062;44.520;11.342;2024-01-30T21:06:25;103130.88;;;3.26;100.00
74370;BME280;71062;44.520;11.342;2024-01-30T21:08:50;103123.91;;;3.22;100.00
74370;BME280;71062;44.520;11.342;2024-01-30T21:11:16;103117.69;;;3.12;100.00
74370;BME280;71062;44.520;11.342;2024-01-30T21:13:46;103109.69;;;3.17;100.00